sensor_id;sensor_type;location;lat;lon;timestamp;P1;durP1;ratioP1;P2;durP2;ratioP2
40601;SDS011;26310;50.278;19.032;2022-08-01T00:02:29;12.53;;;8.93;;
40601;SDS011;26310;50.278;19.032;2022-08-01T00:07:35;10.33;;;7.97;;
40601;SDS011;26310;50.278;19.032;2022-08-01T00:12:39;9.47;;;8.13;;
40601;SDS011;26310;50.278;19.032;2022-08-01T00:17:43;8.53;;;7.33;;
40601;SDS011;26310;50.278;19.032;2022-08-01T00:22:45;9.10;;;7.10;;
40601;SDS011;26310;50.278;19.032;2022-08-01T00:27:48;7.87;;;6.40;;
40601;SDS011;26310;50.278;19.032;2022-08-01T00:32:51;10.67;;;6.53;;
40601;SDS011;26310;50.278;19.032;2022-08-01T00:37:54;7.97;;;6.00;;
40601;SDS011;26310;50.278;19.032;2022-08-01T00:42:56;6.33;;;5.37;;
40601;SDS011;26310;50.278;19.032;2022-08-01T00:47:59;7.40;;;5.50;;
40601;SDS011;26310;50.278;19.032;2022-08-01T00:53:03;7.70;;;5.50;;
40601;SDS011;26310;50.278;19.032;2022-08-01T00:58:06;8.20;;;5.33;;
40601;SDS011;26310;50.278;19.032;2022-08-01T01:03:13;7.37;;;5.30;;
40601;SDS011;26310;50.278;19.032;2022-08-01T01:08:18;7.37;;;5.40;;
40601;SDS011;26310;50.278;19.032;2022-08-01T01:29:35;8.10;;;5.73;;
40601;SDS011;26310;50.278;19.032;2022-08-01T01:35:45;7.00;;;5.07;;
40601;SDS011;26310;50.278;19.032;2022-08-01T01:40:31;5.53;;;4.90;;
40601;SDS011;26310;50.278;19.032;2022-08-01T01:45:35;6.97;;;5.03;;
40601;SDS011;26310;50.278;19.032;2022-08-01T01:50:38;7.07;;;4.90;;
40601;SDS011;26310;50.278;19.032;2022-08-01T01:55:41;8.90;;;5.17;;
40601;SDS011;26310;50.278;19.032;2022-08-01T02:00:51;6.33;;;4.37;;
40601;SDS011;26310;50.278;19.032;2022-08-01T02:05:54;6.40;;;5.20;;
40601;SDS011;26310;50.278;19.032;2022-08-01T02:10:58;8.67;;;5.20;;
40601;SDS011;26310;50.278;19.032;2022-08-01T02:16:21;8.63;;;5.60;;
40601;SDS011;26310;50.278;19.032;2022-08-01T02:21:26;9.33;;;5.83;;
40601;SDS011;26310;50.278;19.032;2022-08-01T02:26:49;6.87;;;5.57;;
40601;SDS011;26310;50.278;19.032;2022-08-01T02:31:54;8.27;;;5.47;;
40601;SDS011;26310;50.278;19.032;2022-08-01T02:36:57;10.43;;;7.73;;
40601;SDS011;26310;50.278;19.032;2022-08-01T02:42:02;7.10;;;6.23;;
40601;SDS011;26310;50.278;19.032;2022-08-01T02:47:08;8.67;;;6.13;;
40601;SDS011;26310;50.278;19.032;2022-08-01T02:52:12;8.30;;;6.70;;
40601;SDS011;26310;50.278;19.032;2022-08-01T02:57:17;10.47;;;6.00;;
40601;SDS011;26310;50.278;19.032;2022-08-01T03:02:21;9.20;;;5.87;;
40601;SDS011;26310;50.278;19.032;2022-08-01T03:07:25;8.27;;;6.60;;
40601;SDS011;26310;50.278;19.032;2022-08-01T03:12:35;7.83;;;6.30;;
40601;SDS011;26310;50.278;19.032;2022-08-01T03:17:39;10.63;;;7.10;;
40601;SDS011;26310;50.278;19.032;2022-08-01T03:22:43;8.40;;;5.90;;
40601;SDS011;26310;50.278;19.032;2022-08-01T03:27:48;7.97;;;6.03;;
40601;SDS011;26310;50.278;19.032;2022-08-01T03:32:59;8.40;;;6.03;;
40601;SDS011;26310;50.278;19.032;2022-08-01T03:38:03;7.30;;;6.13;;
40601;SDS011;26310;50.278;19.032;2022-08-01T03:43:22;6.80;;;6.07;;
40601;SDS011;26310;50.278;19.032;2022-08-01T03:48:34;8.83;;;6.53;;
40601;SDS011;26310;50.278;19.032;2022-08-01T03:53:41;7.90;;;6.57;;
40601;SDS011;26310;50.278;19.032;2022-08-01T03:58:44;7.10;;;6.10;;
40601;SDS011;26310;50.278;19.032;2022-08-01T04:03:51;8.50;;;6.30;;
40601;SDS011;26310;50.278;19.032;2022-08-01T04:08:53;11.30;;;6.93;;
40601;SDS011;26310;50.278;19.032;2022-08-01T04:13:59;12.23;;;7.33;;
40601;SDS011;26310;50.278;19.032;2022-08-01T04:19:09;10.63;;;6.73;;
40601;SDS011;26310;50.278;19.032;2022-08-01T04:24:12;9.73;;;7.33;;
40601;SDS011;26310;50.278;19.032;2022-08-01T04:29:17;12.23;;;6.37;;
40601;SDS011;26310;50.278;19.032;2022-08-01T04:34:22;8.97;;;6.30;;
40601;SDS011;26310;50.278;19.032;2022-08-01T04:39:28;9.83;;;6.00;;
40601;SDS011;26310;50.278;19.032;2022-08-01T04:44:33;12.23;;;7.47;;
40601;SDS011;26310;50.278;19.032;2022-08-01T04:49:35;9.97;;;7.17;;
40601;SDS011;26310;50.278;19.032;2022-08-01T04:54:49;10.63;;;6.47;;
40601;SDS011;26310;50.278;19.032;2022-08-01T04:59:52;12.60;;;8.40;;
40601;SDS011;26310;50.278;19.032;2022-08-01T05:04:58;9.20;;;7.33;;
40601;SDS011;26310;50.278;19.032;2022-08-01T05:10:01;11.43;;;7.80;;
40601;SDS011;26310;50.278;19.032;2022-08-01T05:15:06;12.87;;;8.07;;
40601;SDS011;26310;50.278;19.032;2022-08-01T05:20:16;11.33;;;8.40;;
40601;SDS011;26310;50.278;19.032;2022-08-01T05:25:19;13.63;;;9.13;;
40601;SDS011;26310;50.278;19.032;2022-08-01T05:30:42;12.47;;;9.47;;
40601;SDS011;26310;50.278;19.032;2022-08-01T05:35:44;17.90;;;11.10;;
40601;SDS011;26310;50.278;19.032;2022-08-01T05:40:49;13.40;;;9.53;;
40601;SDS011;26310;50.278;19.032;2022-08-01T05:45:52;12.37;;;8.13;;
40601;SDS011;26310;50.278;19.032;2022-08-01T05:50:55;13.87;;;8.50;;
40601;SDS011;26310;50.278;19.032;2022-08-01T05:55:59;13.33;;;7.60;;
40601;SDS011;26310;50.278;19.032;2022-08-01T06:01:05;12.10;;;7.83;;
40601;SDS011;26310;50.278;19.032;2022-08-01T06:06:08;10.10;;;6.80;;
40601;SDS011;26310;50.278;19.032;2022-08-01T06:11:10;9.10;;;7.30;;
40601;SDS011;26310;50.278;19.032;2022-08-01T06:16:13;9.83;;;6.63;;
40601;SDS011;26310;50.278;19.032;2022-08-01T06:21:17;8.70;;;6.77;;
40601;SDS011;26310;50.278;19.032;2022-08-01T06:26:19;6.73;;;5.97;;
40601;SDS011;26310;50.278;19.032;2022-08-01T06:31:22;7.87;;;5.40;;
40601;SDS011;26310;50.278;19.032;2022-08-01T06:36:25;7.83;;;5.47;;
40601;SDS011;26310;50.278;19.032;2022-08-01T06:41:28;8.17;;;5.57;;
40601;SDS011;26310;50.278;19.032;2022-08-01T06:46:31;8.20;;;6.13;;
40601;SDS011;26310;50.278;19.032;2022-08-01T06:51:35;6.13;;;5.13;;
40601;SDS011;26310;50.278;19.032;2022-08-01T06:56:38;6.30;;;5.33;;
40601;SDS011;26310;50.278;19.032;2022-08-01T07:01:40;7.50;;;6.00;;
40601;SDS011;26310;50.278;19.032;2022-08-01T07:06:43;7.97;;;5.07;;
40601;SDS011;26310;50.278;19.032;2022-08-01T07:11:46;9.80;;;6.17;;
40601;SDS011;26310;50.278;19.032;2022-08-01T07:16:49;7.23;;;5.00;;
40601;SDS011;26310;50.278;19.032;2022-08-01T07:21:52;8.00;;;5.40;;
40601;SDS011;26310;50.278;19.032;2022-08-01T07:26:55;6.87;;;4.87;;
40601;SDS011;26310;50.278;19.032;2022-08-01T07:31:59;5.27;;;4.30;;
40601;SDS011;26310;50.278;19.032;2022-08-01T07:37:01;4.23;;;3.27;;
40601;SDS011;26310;50.278;19.032;2022-08-01T07:42:04;5.63;;;4.30;;
40601;SDS011;26310;50.278;19.032;2022-08-01T07:47:09;4.97;;;3.80;;
40601;SDS011;26310;50.278;19.032;2022-08-01T07:52:11;7.17;;;3.97;;
40601;SDS011;26310;50.278;19.032;2022-08-01T07:57:14;6.70;;;3.53;;
40601;SDS011;26310;50.278;19.032;2022-08-01T08:02:17;4.83;;;3.73;;
40601;SDS011;26310;50.278;19.032;2022-08-01T08:07:20;3.43;;;3.13;;
40601;SDS011;26310;50.278;19.032;2022-08-01T08:12:23;5.80;;;3.40;;
40601;SDS011;26310;50.278;19.032;2022-08-01T08:17:30;5.22;;;3.30;;
40601;SDS011;26310;50.278;19.032;2022-08-01T08:22:37;6.13;;;3.33;;
40601;SDS011;26310;50.278;19.032;2022-08-01T08:27:40;4.03;;;2.95;;
40601;SDS011;26310;50.278;19.032;2022-08-01T08:32:42;4.25;;;2.83;;
40601;SDS011;26310;50.278;19.032;2022-08-01T08:37:45;3.72;;;3.20;;
40601;SDS011;26310;50.278;19.032;2022-08-01T08:42:49;4.28;;;3.33;;
40601;SDS011;26310;50.278;19.032;2022-08-01T08:47:53;4.30;;;3.42;;
40601;SDS011;26310;50.278;19.032;2022-08-01T08:52:57;4.65;;;4.22;;
40601;SDS011;26310;50.278;19.032;2022-08-01T08:58:06;4.32;;;3.90;;
40601;SDS011;26310;50.278;19.032;2022-08-01T09:03:15;5.75;;;3.75;;
40601;SDS011;26310;50.278;19.032;2022-08-01T09:08:18;4.45;;;3.58;;
40601;SDS011;26310;50.278;19.032;2022-08-01T09:13:20;4.13;;;3.72;;
40601;SDS011;26310;50.278;19.032;2022-08-01T09:18:25;3.10;;;2.80;;
40601;SDS011;26310;50.278;19.032;2022-08-01T09:23:33;6.93;;;3.70;;
40601;SDS011;26310;50.278;19.032;2022-08-01T09:28:55;4.53;;;3.30;;
40601;SDS011;26310;50.278;19.032;2022-08-01T09:33:58;6.13;;;3.92;;
40601;SDS011;26310;50.278;19.032;2022-08-01T09:39:11;4.90;;;3.53;;
40601;SDS011;26310;50.278;19.032;2022-08-01T09:44:15;6.20;;;4.05;;
40601;SDS011;26310;50.278;19.032;2022-08-01T09:49:36;5.95;;;3.80;;
40601;SDS011;26310;50.278;19.032;2022-08-01T09:59:59;4.63;;;3.40;;
40601;SDS011;26310;50.278;19.032;2022-08-01T10:05:05;5.47;;;4.97;;
40601;SDS011;26310;50.278;19.032;2022-08-01T10:10:13;5.15;;;4.50;;
40601;SDS011;26310;50.278;19.032;2022-08-01T10:15:17;4.80;;;4.30;;
40601;SDS011;26310;50.278;19.032;2022-08-01T10:20:30;4.45;;;3.85;;
40601;SDS011;26310;50.278;19.032;2022-08-01T10:25:37;8.77;;;5.00;;
40601;SDS011;26310;50.278;19.032;2022-08-01T10:30:47;7.38;;;5.55;;
40601;SDS011;26310;50.278;19.032;2022-08-01T10:35:51;5.47;;;4.97;;
40601;SDS011;26310;50.278;19.032;2022-08-01T10:40:54;5.35;;;4.85;;
40601;SDS011;26310;50.278;19.032;2022-08-01T10:45:57;5.30;;;4.80;;
40601;SDS011;26310;50.278;19.032;2022-08-01T10:51:01;5.55;;;4.50;;
40601;SDS011;26310;50.278;19.032;2022-08-01T10:56:19;4.32;;;3.92;;
40601;SDS011;26310;50.278;19.032;2022-08-01T11:01:31;5.10;;;4.40;;
40601;SDS011;26310;50.278;19.032;2022-08-01T11:06:42;7.10;;;5.10;;
40601;SDS011;26310;50.278;19.032;2022-08-01T11:17:47;5.80;;;5.15;;
40601;SDS011;26310;50.278;19.032;2022-08-01T11:44:05;8.85;;;5.55;;
40601;SDS011;26310;50.278;19.032;2022-08-01T11:49:26;6.70;;;6.03;;
40601;SDS011;26310;50.278;19.032;2022-08-01T11:54:38;7.65;;;6.90;;
40601;SDS011;26310;50.278;19.032;2022-08-01T11:59:42;6.57;;;5.97;;
40601;SDS011;26310;50.278;19.032;2022-08-01T12:05:08;8.85;;;6.47;;
40601;SDS011;26310;50.278;19.032;2022-08-01T12:10:17;8.35;;;6.43;;
40601;SDS011;26310;50.278;19.032;2022-08-01T12:15:23;6.03;;;5.43;;
40601;SDS011;26310;50.278;19.032;2022-08-01T12:20:27;7.07;;;6.18;;
40601;SDS011;26310;50.278;19.032;2022-08-01T12:25:33;7.00;;;5.80;;
40601;SDS011;26310;50.278;19.032;2022-08-01T12:30:37;7.43;;;5.30;;
40601;SDS011;26310;50.278;19.032;2022-08-01T12:35:40;5.05;;;4.55;;
40601;SDS011;26310;50.278;19.032;2022-08-01T12:40:44;7.85;;;5.70;;
40601;SDS011;26310;50.278;19.032;2022-08-01T12:45:53;8.50;;;5.72;;
40601;SDS011;26310;50.278;19.032;2022-08-01T12:50:58;4.65;;;4.25;;
40601;SDS011;26310;50.278;19.032;2022-08-01T12:56:02;6.80;;;4.90;;
40601;SDS011;26310;50.278;19.032;2022-08-01T13:01:09;6.78;;;4.63;;
40601;SDS011;26310;50.278;19.032;2022-08-01T13:06:15;4.47;;;4.05;;
40601;SDS011;26310;50.278;19.032;2022-08-01T13:11:18;4.15;;;3.53;;
40601;SDS011;26310;50.278;19.032;2022-08-01T13:16:22;4.60;;;3.38;;
40601;SDS011;26310;50.278;19.032;2022-08-01T13:21:38;4.65;;;4.15;;
40601;SDS011;26310;50.278;19.032;2022-08-01T13:26:56;6.22;;;4.13;;
40601;SDS011;26310;50.278;19.032;2022-08-01T13:32:15;7.78;;;4.80;;
40601;SDS011;26310;50.278;19.032;2022-08-01T13:37:30;3.75;;;3.45;;
40601;SDS011;26310;50.278;19.032;2022-08-01T13:42:33;5.25;;;4.63;;
40601;SDS011;26310;50.278;19.032;2022-08-01T13:47:36;4.32;;;3.90;;
40601;SDS011;26310;50.278;19.032;2022-08-01T13:52:59;5.38;;;4.40;;
40601;SDS011;26310;50.278;19.032;2022-08-01T13:58:02;5.07;;;4.40;;
40601;SDS011;26310;50.278;19.032;2022-08-01T14:03:04;5.35;;;4.55;;
40601;SDS011;26310;50.278;19.032;2022-08-01T14:08:07;6.80;;;4.68;;
40601;SDS011;26310;50.278;19.032;2022-08-01T14:13:11;4.60;;;4.20;;
40601;SDS011;26310;50.278;19.032;2022-08-01T14:18:15;4.50;;;4.10;;
40601;SDS011;26310;50.278;19.032;2022-08-01T14:23:18;5.93;;;4.82;;
40601;SDS011;26310;50.278;19.032;2022-08-01T14:28:23;5.78;;;4.40;;
40601;SDS011;26310;50.278;19.032;2022-08-01T14:33:27;4.10;;;3.70;;
40601;SDS011;26310;50.278;19.032;2022-08-01T14:38:30;5.38;;;4.80;;
40601;SDS011;26310;50.278;19.032;2022-08-01T14:43:34;4.78;;;3.17;;
40601;SDS011;26310;50.278;19.032;2022-08-01T14:48:37;3.50;;;2.97;;
40601;SDS011;26310;50.278;19.032;2022-08-01T14:53:40;6.68;;;5.60;;
40601;SDS011;26310;50.278;19.032;2022-08-01T14:58:51;5.68;;;4.40;;
40601;SDS011;26310;50.278;19.032;2022-08-01T15:03:54;7.32;;;5.38;;
40601;SDS011;26310;50.278;19.032;2022-08-01T15:08:57;5.65;;;4.38;;
40601;SDS011;26310;50.278;19.032;2022-08-01T15:14:00;5.32;;;4.63;;
40601;SDS011;26310;50.278;19.032;2022-08-01T15:19:21;5.50;;;4.82;;
40601;SDS011;26310;50.278;19.032;2022-08-01T15:24:24;7.82;;;6.32;;
40601;SDS011;26310;50.278;19.032;2022-08-01T15:29:26;5.07;;;4.60;;
40601;SDS011;26310;50.278;19.032;2022-08-01T15:34:30;9.40;;;7.22;;
40601;SDS011;26310;50.278;19.032;2022-08-01T15:39:33;6.32;;;5.72;;
40601;SDS011;26310;50.278;19.032;2022-08-01T15:44:38;6.47;;;5.65;;
40601;SDS011;26310;50.278;19.032;2022-08-01T15:49:41;6.72;;;5.97;;
40601;SDS011;26310;50.278;19.032;2022-08-01T15:54:44;6.05;;;5.45;;
40601;SDS011;26310;50.278;19.032;2022-08-01T15:59:46;6.82;;;6.13;;
40601;SDS011;26310;50.278;19.032;2022-08-01T16:04:49;6.60;;;6.00;;
40601;SDS011;26310;50.278;19.032;2022-08-01T16:09:52;6.20;;;5.60;;
40601;SDS011;26310;50.278;19.032;2022-08-01T16:14:55;5.45;;;4.85;;
40601;SDS011;26310;50.278;19.032;2022-08-01T16:19:58;7.32;;;6.63;;
40601;SDS011;26310;50.278;19.032;2022-08-01T16:25:02;6.82;;;6.13;;
40601;SDS011;26310;50.278;19.032;2022-08-01T16:30:06;7.05;;;5.75;;
40601;SDS011;26310;50.278;19.032;2022-08-01T16:35:09;9.32;;;6.55;;
40601;SDS011;26310;50.278;19.032;2022-08-01T16:40:13;6.03;;;5.43;;
40601;SDS011;26310;50.278;19.032;2022-08-01T16:45:16;6.22;;;5.43;;
40601;SDS011;26310;50.278;19.032;2022-08-01T16:50:22;5.97;;;5.38;;
40601;SDS011;26310;50.278;19.032;2022-08-01T16:55:29;6.47;;;5.53;;
40601;SDS011;26310;50.278;19.032;2022-08-01T17:00:50;7.85;;;6.07;;
40601;SDS011;26310;50.278;19.032;2022-08-01T17:05:57;8.50;;;6.40;;
40601;SDS011;26310;50.278;19.032;2022-08-01T17:11:00;6.72;;;5.43;;
40601;SDS011;26310;50.278;19.032;2022-08-01T17:16:06;8.13;;;6.57;;
40601;SDS011;26310;50.278;19.032;2022-08-01T17:21:09;6.00;;;5.32;;
40601;SDS011;26310;50.278;19.032;2022-08-01T17:26:12;7.20;;;6.05;;
40601;SDS011;26310;50.278;19.032;2022-08-01T17:31:15;6.85;;;5.00;;
40601;SDS011;26310;50.278;19.032;2022-08-01T17:36:18;6.00;;;5.40;;
40601;SDS011;26310;50.278;19.032;2022-08-01T17:41:21;10.77;;;6.05;;
40601;SDS011;26310;50.278;19.032;2022-08-01T17:46:24;5.43;;;4.70;;
40601;SDS011;26310;50.278;19.032;2022-08-01T17:51:27;5.28;;;4.63;;
40601;SDS011;26310;50.278;19.032;2022-08-01T17:56:31;4.95;;;4.50;;
40601;SDS011;26310;50.278;19.032;2022-08-01T18:01:43;5.82;;;4.82;;
40601;SDS011;26310;50.278;19.032;2022-08-01T18:06:46;6.97;;;5.22;;
40601;SDS011;26310;50.278;19.032;2022-08-01T18:11:59;5.93;;;4.90;;
40601;SDS011;26310;50.278;19.032;2022-08-01T18:17:03;5.40;;;4.72;;
40601;SDS011;26310;50.278;19.032;2022-08-01T18:22:08;5.82;;;4.65;;
40601;SDS011;26310;50.278;19.032;2022-08-01T18:27:32;5.15;;;4.65;;
40601;SDS011;26310;50.278;19.032;2022-08-01T18:32:54;4.80;;;4.30;;
40601;SDS011;26310;50.278;19.032;2022-08-01T18:37:57;6.13;;;4.35;;
40601;SDS011;26310;50.278;19.032;2022-08-01T18:43:02;6.38;;;4.53;;
40601;SDS011;26310;50.278;19.032;2022-08-01T18:48:05;5.03;;;4.53;;
40601;SDS011;26310;50.278;19.032;2022-08-01T18:53:08;6.90;;;4.15;;
40601;SDS011;26310;50.278;19.032;2022-08-01T18:58:10;4.85;;;3.95;;
40601;SDS011;26310;50.278;19.032;2022-08-01T19:03:13;3.97;;;3.60;;
40601;SDS011;26310;50.278;19.032;2022-08-01T19:08:17;5.50;;;4.28;;
40601;SDS011;26310;50.278;19.032;2022-08-01T19:13:19;6.82;;;4.25;;
40601;SDS011;26310;50.278;19.032;2022-08-01T19:18:22;5.13;;;4.43;;
40601;SDS011;26310;50.278;19.032;2022-08-01T19:23:26;5.45;;;4.22;;
40601;SDS011;26310;50.278;19.032;2022-08-01T19:28:50;6.10;;;4.75;;
40601;SDS011;26310;50.278;19.032;2022-08-01T19:34:01;5.97;;;5.13;;
40601;SDS011;26310;50.278;19.032;2022-08-01T19:39:06;7.28;;;5.22;;
40601;SDS011;26310;50.278;19.032;2022-08-01T19:44:11;8.38;;;5.25;;
40601;SDS011;26310;50.278;19.032;2022-08-01T19:49:17;5.72;;;5.07;;
40601;SDS011;26310;50.278;19.032;2022-08-01T19:54:22;5.88;;;5.30;;
40601;SDS011;26310;50.278;19.032;2022-08-01T19:59:30;6.93;;;5.20;;
40601;SDS011;26310;50.278;19.032;2022-08-01T20:04:34;6.72;;;6.10;;
40601;SDS011;26310;50.278;19.032;2022-08-01T20:09:40;6.70;;;6.00;;
40601;SDS011;26310;50.278;19.032;2022-08-01T20:14:46;7.38;;;6.10;;
40601;SDS011;26310;50.278;19.032;2022-08-01T20:19:54;9.80;;;7.35;;
40601;SDS011;26310;50.278;19.032;2022-08-01T20:24:57;9.05;;;7.13;;
40601;SDS011;26310;50.278;19.032;2022-08-01T20:30:01;14.65;;;7.10;;
40601;SDS011;26310;50.278;19.032;2022-08-01T20:35:04;12.90;;;7.15;;
40601;SDS011;26310;50.278;19.032;2022-08-01T20:40:08;9.15;;;7.30;;
40601;SDS011;26310;50.278;19.032;2022-08-01T20:45:13;9.27;;;7.20;;
40601;SDS011;26310;50.278;19.032;2022-08-01T20:50:19;10.73;;;7.38;;
40601;SDS011;26310;50.278;19.032;2022-08-01T21:01:28;7.45;;;6.35;;
40601;SDS011;26310;50.278;19.032;2022-08-01T21:06:37;8.00;;;5.88;;
40601;SDS011;26310;50.278;19.032;2022-08-01T21:11:49;7.30;;;5.53;;
40601;SDS011;26310;50.278;19.032;2022-08-01T21:16:59;6.10;;;5.28;;
40601;SDS011;26310;50.278;19.032;2022-08-01T21:22:09;6.03;;;4.85;;
40601;SDS011;26310;50.278;19.032;2022-08-01T21:27:15;5.40;;;4.90;;
40601;SDS011;26310;50.278;19.032;2022-08-01T21:32:18;8.75;;;6.55;;
40601;SDS011;26310;50.278;19.032;2022-08-01T21:37:23;6.38;;;5.18;;
40601;SDS011;26310;50.278;19.032;2022-08-01T21:42:27;11.32;;;9.23;;
40601;SDS011;26310;50.278;19.032;2022-08-01T21:47:29;12.05;;;7.90;;
40601;SDS011;26310;50.278;19.032;2022-08-01T21:52:34;6.97;;;6.13;;
40601;SDS011;26310;50.278;19.032;2022-08-01T22:03:04;5.20;;;4.68;;
40601;SDS011;26310;50.278;19.032;2022-08-01T22:08:27;6.60;;;5.32;;
40601;SDS011;26310;50.278;19.032;2022-08-01T22:13:33;5.93;;;4.75;;
40601;SDS011;26310;50.278;19.032;2022-08-01T22:18:36;6.72;;;4.72;;
40601;SDS011;26310;50.278;19.032;2022-08-01T22:23:39;6.50;;;4.68;;
40601;SDS011;26310;50.278;19.032;2022-08-01T22:28:42;6.32;;;5.32;;
40601;SDS011;26310;50.278;19.032;2022-08-01T22:33:45;5.28;;;4.22;;
40601;SDS011;26310;50.278;19.032;2022-08-01T22:38:49;8.55;;;5.30;;
40601;SDS011;26310;50.278;19.032;2022-08-01T22:43:57;6.78;;;4.82;;
40601;SDS011;26310;50.278;19.032;2022-08-01T22:54:28;5.93;;;4.82;;
40601;SDS011;26310;50.278;19.032;2022-08-01T23:05:01;7.28;;;5.30;;
40601;SDS011;26310;50.278;19.032;2022-08-01T23:10:06;10.15;;;5.70;;
40601;SDS011;26310;50.278;19.032;2022-08-01T23:15:10;11.70;;;8.03;;
40601;SDS011;26310;50.278;19.032;2022-08-01T23:20:13;11.10;;;8.02;;
40601;SDS011;26310;50.278;19.032;2022-08-01T23:25:17;10.93;;;7.37;;
40601;SDS011;26310;50.278;19.032;2022-08-01T23:30:21;12.77;;;7.87;;
40601;SDS011;26310;50.278;19.032;2022-08-01T23:35:26;13.27;;;7.57;;
40601;SDS011;26310;50.278;19.032;2022-08-01T23:40:30;14.77;;;8.97;;
40601;SDS011;26310;50.278;19.032;2022-08-01T23:45:33;12.67;;;8.03;;
40601;SDS011;26310;50.278;19.032;2022-08-01T23:50:56;16.43;;;12.53;;
40601;SDS011;26310;50.278;19.032;2022-08-01T23:55:59;21.77;;;15.00;;
